Time;durP1;ratioP1;P1;durP2;ratioP2;P2;SDS_P1;SDS_P2;PMS_P1;PMS_P2;Temp;Humidity;BMP_temperature;BMP_pressure;BME280_temperature;BME280_humidity;BME280_pressure;Samples;Min_cycle;Max_cycle;Signal;HPM_P1;HPM_P2
2021/12/25 00:02:07;;;;;;;;;54.00;40.00;;;;;8.54;100.00;99997.41;5045631;28;45479;-79
2021/12/25 00:04:32;;;;;;;;;44.00;36.00;;;;;8.49;100.00;99980.06;5052527;28;47242;-82
2021/12/25 00:06:58;;;;;;;;;41.33;33.33;;;;;8.60;100.00;99999.00;5055426;28;45447;-84
2021/12/25 00:09:23;;;;;;;;;50.67;36.00;;;;;8.60;100.00;99985.88;5055990;28;45891;-80
2021/12/25 00:11:48;;;;;;;;;51.33;35.67;;;;;8.65;100.00;99983.13;5055277;28;45785;-81
2021/12/25 00:14:14;;;;;;;;;37.00;32.00;;;;;8.39;100.00;99937.44;5055790;28;46349;-81
2021/12/25 00:16:39;;;;;;;;;47.67;36.67;;;;;8.63;100.00;99977.09;5043824;28;45681;-81
2021/12/25 00:19:06;;;;;;;;;35.33;33.33;;;;;8.68;100.00;99990.91;5047347;28;45647;-83
2021/12/25 00:21:31;;;;;;;;;41.33;33.33;;;;;8.70;100.00;99989.97;5070026;27;45781;-80
2021/12/25 00:23:57;;;;;;;;;39.33;29.33;;;;;8.65;100.00;99975.25;5052357;28;46338;-80
2021/12/25 00:26:39;;;;;;;;;44.67;38.33;;;;;8.76;100.00;99986.34;5044622;28;45500;-82
2021/12/25 00:29:31;;;;;;;;;41.33;34.67;;;;;8.67;100.00;99960.31;5055259;28;46020;-82
2021/12/25 00:34:35;;;;;;;;;47.33;39.00;;;;;8.65;100.00;99957.75;5040911;28;46061;-79
2021/12/25 00:37:01;;;;;;;;;39.67;31.33;;;;;8.79;100.00;99975.75;5055642;28;45821;-84
2021/12/25 00:39:29;;;;;;;;;37.67;31.00;;;;;8.70;100.00;99966.38;5055673;28;45376;-82
2021/12/25 00:41:55;;;;;;;;;33.33;30.00;;;;;8.77;100.00;99971.44;5055975;28;45534;-81
2021/12/25 00:44:21;;;;;;;;;40.67;31.00;;;;;8.75;100.00;99970.63;5045108;28;45866;-81
2021/12/25 00:46:46;;;;;;;;;49.33;36.00;;;;;8.67;100.00;99957.69;5047826;28;45444;-80
2021/12/25 00:49:12;;;;;;;;;41.67;34.67;;;;;8.71;100.00;99968.09;5045535;28;45779;-79
2021/12/25 00:51:37;;;;;;;;;38.00;32.67;;;;;8.75;100.00;99971.47;5054951;28;45415;-79
2021/12/25 00:54:03;;;;;;;;;41.33;35.67;;;;;8.81;100.00;99978.31;5054241;28;46989;-79
2021/12/25 00:56:28;;;;;;;;;36.67;33.33;;;;;8.67;100.00;99957.69;5054988;28;45372;-81
2021/12/25 00:58:54;;;;;;;;;52.00;38.33;;;;;8.81;100.00;99970.44;5054858;28;45572;-81
2021/12/25 01:01:19;;;;;;;;;42.00;33.67;;;;;8.83;100.00;99974.75;5055562;28;45677;-84
2021/12/25 01:03:44;;;;;;;;;37.00;32.67;;;;;8.76;100.00;99965.34;5053149;28;45571;-84
2021/12/25 01:06:10;;;;;;;;;45.67;36.33;;;;;8.80;100.00;99961.72;5055213;28;45589;-84
2021/12/25 01:08:35;;;;;;;;;37.33;33.00;;;;;8.89;100.00;99965.84;5049775;28;45573;-85
2021/12/25 01:11:01;;;;;;;;;38.00;31.00;;;;;8.84;100.00;99968.63;5054795;28;45538;-84
2021/12/25 01:13:31;;;;;;;;;43.00;35.67;;;;;8.92;100.00;99976.25;5057345;28;45619;-84
2021/12/25 01:16:15;;;;;;;;;48.67;33.33;;;;;8.83;100.00;99953.75;5054204;28;45431;-82
2021/12/25 01:19:15;;;;;;;;;42.00;33.33;;;;;8.97;100.00;99968.25;5055259;28;45403;-83
2021/12/25 01:37:45;;;;;;;;;39.33;33.00;;;;;9.12;100.00;99970.44;5045662;28;45815;-83
2021/12/25 01:47:45;;;;;;;;;40.00;33.33;;;;;9.04;100.00;99952.25;5059483;28;45427;-83
2021/12/25 01:50:09;;;;;;;;;44.00;32.00;;;;;9.15;100.00;99972.97;5050151;28;45471;-77
2021/12/25 01:52:35;;;;;;;;;37.00;31.33;;;;;9.14;100.00;99968.63;5054416;28;45442;-77
2021/12/25 01:55:06;;;;;;;;;41.67;30.67;;;;;9.16;100.00;99972.03;5052416;28;46097;-77
2021/12/25 01:57:31;;;;;;;;;38.67;31.33;;;;;9.19;100.00;99977.25;5054097;28;45420;-77
2021/12/25 01:59:58;;;;;;;;;42.67;34.33;;;;;9.09;100.00;99951.28;5052932;28;45521;-76
2021/12/25 02:02:24;;;;;;;;;48.33;33.00;;;;;9.26;100.00;99979.66;5052613;28;45585;-77
2021/12/25 02:04:51;;;;;;;;;44.67;28.67;;;;;9.23;100.00;99973.59;5052635;28;45402;-77
2021/12/25 02:07:17;;;;;;;;;38.33;32.33;;;;;9.20;100.00;99970.22;5052846;28;45906;-77
2021/12/25 02:09:43;;;;;;;;;41.67;34.33;;;;;9.22;100.00;99978.88;5046526;28;47375;-73
2021/12/25 02:12:10;;;;;;;;;45.00;35.33;;;;;9.25;100.00;99994.59;5051625;28;45506;-77
2021/12/25 02:14:37;;;;;;;;;39.33;26.33;;;;;9.13;100.00;99968.66;5053649;28;45521;-77
2021/12/25 02:17:16;;;;;;;;;41.33;31.00;;;;;9.20;100.00;99976.31;5053576;28;45442;-76
2021/12/25 02:19:49;;;;;;;;;34.00;30.33;;;;;9.16;100.00;99972.03;5053315;28;45791;-76
2021/12/25 02:22:15;;;;;;;;;42.67;33.67;;;;;9.29;100.00;99993.56;5050975;28;45639;-76
2021/12/25 02:24:40;;;;;;;;;44.00;34.33;;;;;9.22;100.00;99981.50;5048597;28;46410;-76
2021/12/25 02:27:06;;;;;;;;;36.33;32.67;;;;;9.24;100.00;99983.19;5058840;28;45747;-77
2021/12/25 02:29:32;;;;;;;;;36.00;29.33;;;;;9.30;100.00;99990.03;5053493;28;45793;-78
2021/12/25 02:31:59;;;;;;;;;42.33;34.00;;;;;9.26;100.00;99993.66;5050067;28;45379;-78
2021/12/25 02:34:24;;;;;;;;;41.33;35.33;;;;;9.20;100.00;99981.56;5053110;28;46290;-77
2021/12/25 02:36:50;;;;;;;;;44.00;30.33;;;;;9.27;100.00;99995.38;5051045;28;45527;-76
2021/12/25 02:39:16;;;;;;;;;37.33;33.33;;;;;9.26;100.00;99984.94;5053988;28;46073;-77
2021/12/25 02:41:42;;;;;;;;;44.33;35.00;;;;;9.21;100.00;99982.44;5054038;28;45543;-77
2021/12/25 02:44:08;;;;;;;;;50.67;36.33;;;;;9.22;100.00;99977.13;5054019;28;45662;-78
2021/12/25 02:46:33;;;;;;;;;44.67;35.00;;;;;9.28;100.00;99985.72;5053160;28;45535;-77
2021/12/25 02:48:59;;;;;;;;;42.00;31.00;;;;;9.25;100.00;99976.19;5048675;28;45558;-78
2021/12/25 02:51:25;;;;;;;;;46.00;33.67;;;;;9.20;100.00;99985.97;5053703;28;45551;-78
2021/12/25 02:53:50;;;;;;;;;40.67;33.00;;;;;9.14;100.00;99967.75;5053617;28;46710;-78
2021/12/25 02:56:16;;;;;;;;;41.67;30.33;;;;;9.24;100.00;99982.34;5044924;28;45313;-78
2021/12/25 02:58:41;;;;;;;;;45.00;32.33;;;;;9.29;100.00;99990.94;5052981;28;45443;-78
2021/12/25 03:01:18;;;;;;;;;47.67;33.00;;;;;9.30;100.00;99989.19;5052052;28;45502;-77
2021/12/25 03:03:44;;;;;;;;;37.00;34.33;;;;;9.29;100.00;99979.56;5052843;28;47120;-78
2021/12/25 03:06:11;;;;;;;;;41.33;35.00;;;;;9.34;100.00;99983.78;5052342;28;45376;-78
2021/12/25 03:08:39;;;;;;;;;38.00;32.33;;;;;9.23;100.00;99970.09;5053328;28;45607;-79
2021/12/25 03:11:10;;;;;;;;;45.67;35.67;;;;;9.34;100.00;99985.56;5048637;28;45313;-77
2021/12/25 03:13:44;;;;;;;;;38.00;33.00;;;;;9.24;100.00;99979.72;5056812;28;47203;-77
2021/12/25 03:16:10;;;;;;;;;30.67;28.00;;;;;9.30;100.00;99984.78;5057034;28;45224;-78
2021/12/25 03:18:45;;;;;;;;;37.33;30.00;;;;;9.20;100.00;99968.44;5055323;28;45416;-78
2021/12/25 03:21:11;;;;;;;;;39.33;33.00;;;;;9.31;100.00;99985.63;5057050;28;45445;-78
2021/12/25 03:23:38;;;;;;;;;37.67;33.00;;;;;9.34;100.00;99990.81;5057025;28;46422;-78
2021/12/25 03:26:06;;;;;;;;;44.33;33.00;;;;;9.34;100.00;99982.94;5056699;28;45380;-78
2021/12/25 03:28:33;;;;;;;;;44.33;38.00;;;;;9.30;100.00;99982.16;5060734;28;45490;-78
2021/12/25 03:31:03;;;;;;;;;41.67;35.00;;;;;9.16;100.00;99968.56;5060830;28;45209;-78
2021/12/25 03:33:29;;;;;;;;;29.33;27.33;;;;;9.33;100.00;99992.56;5057219;28;47518;-77
2021/12/25 03:35:55;;;;;;;;;33.67;28.33;;;;;9.21;100.00;99979.81;5040459;28;45370;-78
2021/12/25 03:38:21;;;;;;;;;32.00;29.67;;;;;9.29;100.00;100001.44;5055153;28;45428;-77
2021/12/25 03:40:49;;;;;;;;;32.67;29.67;;;;;9.30;100.00;99991.81;5043384;28;45371;-77
2021/12/25 03:43:15;;;;;;;;;35.00;30.67;;;;;9.27;100.00;99986.66;5060055;28;46366;-77
2021/12/25 03:45:41;;;;;;;;;38.67;31.33;;;;;9.09;100.00;99967.03;5060505;28;45408;-77
2021/12/25 03:48:15;;;;;;;;;38.67;29.67;;;;;9.29;100.00;99996.19;5060016;28;45703;-77
2021/12/25 03:58:36;;;;;;;;;38.00;31.33;;;;;9.31;100.00;99996.13;5043082;28;45299;-77
2021/12/25 04:01:24;;;;;;;;;39.00;28.33;;;;;9.33;100.00;100000.44;5060114;28;45332;-77
2021/12/25 04:04:05;;;;;;;;;29.67;27.33;;;;;9.26;100.00;99998.91;5058795;28;46528;-77
2021/12/25 04:06:32;;;;;;;;;30.33;27.33;;;;;9.14;100.00;99994.03;5059558;28;45519;-77
2021/12/25 04:08:58;;;;;;;;;34.33;30.00;;;;;9.11;100.00;99988.88;5052337;28;45623;-77
2021/12/25 04:11:28;;;;;;;;;36.00;29.33;;;;;9.23;100.00;100007.72;5043927;28;45454;-76
2021/12/25 04:13:54;;;;;;;;;31.00;27.33;;;;;9.19;100.00;100003.50;5059254;28;46282;-76
2021/12/25 04:16:19;;;;;;;;;38.33;30.00;;;;;9.21;100.00;99985.06;5058924;28;45368;-76
2021/12/25 04:18:45;;;;;;;;;34.33;30.33;;;;;9.03;100.00;99968.94;5059476;28;45472;-77
2021/12/25 04:21:10;;;;;;;;;34.00;29.00;;;;;9.16;100.00;99994.84;5058470;28;45592;-77
2021/12/25 04:23:39;;;;;;;;;33.00;30.33;;;;;9.22;100.00;100000.78;5059446;28;46654;-78
2021/12/25 04:26:05;;;;;;;;;39.00;33.33;;;;;9.22;100.00;99999.91;5059632;28;45406;-78
2021/12/25 04:28:43;;;;;;;;;31.33;24.33;;;;;9.30;100.00;100000.53;5059914;28;45412;-78
2021/12/25 05:05:57;;;;;;;;;27.33;23.00;;;;;9.00;100.00;100011.06;5056578;28;46268;-77
2021/12/25 05:08:23;;;;;;;;;20.33;18.67;;;;;9.09;100.00;100030.06;5058531;28;45440;-77
2021/12/25 05:10:48;;;;;;;;;26.00;18.67;;;;;9.04;100.00;100033.66;5059260;28;45406;-79
2021/12/25 05:13:14;;;;;;;;;23.33;20.00;;;;;9.04;100.00;100046.78;5058865;28;45622;-78
2021/12/25 05:15:39;;;;;;;;;24.67;21.33;;;;;9.02;100.00;100043.38;5050866;28;46589;-77
2021/12/25 05:18:05;;;;;;;;;20.67;20.67;;;;;9.01;100.00;100046.88;5051405;28;45420;-78
2021/12/25 05:20:31;;;;;;;;;20.00;19.00;;;;;9.15;100.00;100061.38;5051064;28;45495;-78
2021/12/25 05:22:57;;;;;;;;;17.00;15.00;;;;;9.12;100.00;100050.97;5058027;28;45205;-78
2021/12/25 05:25:22;;;;;;;;;22.67;19.33;;;;;9.00;100.00;100025.91;5058518;28;46483;-78
2021/12/25 05:27:49;;;;;;;;;25.67;19.33;;;;;8.98;100.00;100031.22;5057819;28;45440;-78
2021/12/25 05:30:16;;;;;;;;;21.00;18.00;;;;;9.05;100.00;100045.06;5058993;28;45721;-77
2021/12/25 05:32:41;;;;;;;;;28.33;23.00;;;;;9.02;100.00;100039.88;5058475;28;45503;-78
2021/12/25 05:35:07;;;;;;;;;24.33;24.33;;;;;9.02;100.00;100053.03;5057960;28;45494;-77
2021/12/25 05:37:32;;;;;;;;;26.00;22.33;;;;;8.93;100.00;100050.63;5057327;28;46073;-77
2021/12/25 05:39:58;;;;;;;;;24.00;21.00;;;;;8.93;100.00;100072.50;5058453;28;45470;-77
2021/12/25 05:42:23;;;;;;;;;23.00;21.67;;;;;8.89;100.00;100063.84;5057297;28;45382;-75
2021/12/25 05:44:50;;;;;;;;;23.67;21.00;;;;;8.93;100.00;100064.63;5058427;28;46195;-77
2021/12/25 05:47:16;;;;;;;;;30.33;22.67;;;;;8.86;100.00;100063.91;5057908;28;45580;-77
2021/12/25 05:49:42;;;;;;;;;26.33;22.67;;;;;8.61;100.00;100021.72;5057059;28;45360;-78
2021/12/25 05:52:07;;;;;;;;;31.67;26.00;;;;;8.83;100.00;100063.13;5058842;28;45522;-77
2021/12/25 05:54:33;;;;;;;;;23.67;21.00;;;;;8.78;100.00;100059.78;5057796;28;46437;-78
2021/12/25 05:56:59;;;;;;;;;27.33;24.33;;;;;8.87;100.00;100070.03;5058049;28;45781;-78
2021/12/25 05:59:24;;;;;;;;;29.67;25.00;;;;;8.87;100.00;100078.78;5056715;28;45288;-77
2021/12/25 06:01:50;;;;;;;;;28.00;23.00;;;;;8.86;100.00;100068.31;5058377;28;45369;-77
2021/12/25 06:04:15;;;;;;;;;22.67;22.00;;;;;8.85;100.00;100074.47;5057131;28;45901;-76
2021/12/25 06:06:41;;;;;;;;;25.33;24.33;;;;;8.77;100.00;100060.69;5054865;28;45550;-76
2021/12/25 06:09:09;;;;;;;;;32.67;30.67;;;;;8.82;100.00;100069.31;5058270;28;45336;-76
2021/12/25 06:11:38;;;;;;;;;23.33;23.33;;;;;8.79;100.00;100075.50;5058374;28;45245;-76
2021/12/25 06:14:17;;;;;;;;;26.67;24.33;;;;;8.85;100.00;100092.84;5057419;28;46961;-76
2021/12/25 06:16:43;;;;;;;;;22.00;20.33;;;;;8.82;100.00;100085.91;5043405;28;45483;-77
2021/12/25 06:19:09;;;;;;;;;30.33;23.00;;;;;8.86;100.00;100094.56;5057223;28;45447;-77
2021/12/25 06:21:35;;;;;;;;;27.00;23.00;;;;;8.87;100.00;100098.91;5058291;28;45289;-77
2021/12/25 06:24:02;;;;;;;;;23.00;16.67;;;;;8.80;100.00;100098.22;5057515;28;45583;-77
2021/12/25 06:26:29;;;;;;;;;23.67;22.00;;;;;8.82;100.00;100092.94;5056787;28;45238;-77
2021/12/25 06:28:55;;;;;;;;;26.67;22.00;;;;;8.84;100.00;100105.13;5057877;28;45196;-76
2021/12/25 06:31:21;;;;;;;;;27.67;25.33;;;;;8.80;100.00;100103.47;5054140;28;45439;-76
2021/12/25 06:33:47;;;;;;;;;29.00;24.00;;;;;8.83;100.00;100107.75;5057367;28;46101;-75
2021/12/25 06:36:12;;;;;;;;;29.00;26.00;;;;;8.81;100.00;100105.16;5057557;28;45426;-76
2021/12/25 06:38:40;;;;;;;;;25.33;23.33;;;;;8.58;100.00;100076.88;5057872;28;45345;-74
2021/12/25 06:41:05;;;;;;;;;21.33;19.33;;;;;8.65;100.00;100090.72;5057874;28;45317;-75
2021/12/25 06:43:31;;;;;;;;;30.67;22.00;;;;;8.72;100.00;100105.41;5057132;28;46341;-76
2021/12/25 06:45:56;;;;;;;;;27.00;22.00;;;;;8.75;100.00;100104.50;5053001;28;45486;-75
2021/12/25 06:48:22;;;;;;;;;21.00;19.00;;;;;8.72;100.00;100102.78;5057451;28;45303;-76
2021/12/25 06:50:47;;;;;;;;;24.00;20.67;;;;;8.68;100.00;100099.41;5043615;28;45341;-76
2021/12/25 06:53:13;;;;;;;;;23.33;19.00;;;;;8.52;100.00;100077.06;5037332;28;45284;-76
2021/12/25 06:55:38;;;;;;;;;23.67;20.00;;;;;8.64;100.00;100107.38;5056146;28;45274;-75
2021/12/25 06:58:04;;;;;;;;;21.33;18.33;;;;;8.38;100.00;100069.50;5057254;28;45562;-75
2021/12/25 07:00:31;;;;;;;;;20.67;17.33;;;;;8.57;100.00;100103.16;5057031;28;45521;-75
2021/12/25 07:02:57;;;;;;;;;21.67;18.67;;;;;8.57;100.00;100108.41;5057077;28;46303;-78
2021/12/25 07:05:23;;;;;;;;;19.33;19.33;;;;;8.48;100.00;100101.63;5056638;28;45405;-77
2021/12/25 07:07:48;;;;;;;;;24.33;19.00;;;;;8.42;100.00;100097.38;5057421;28;45425;-77
2021/12/25 07:10:14;;;;;;;;;23.00;19.00;;;;;8.48;100.00;100120.00;5056849;28;45460;-78
2021/12/25 07:12:43;;;;;;;;;18.67;17.33;;;;;8.48;100.00;100123.50;5057201;28;45564;-78
2021/12/25 07:15:09;;;;;;;;;22.00;20.00;;;;;8.55;100.00;100134.69;5056488;28;45308;-78
2021/12/25 07:17:35;;;;;;;;;21.33;19.00;;;;;8.51;100.00;100131.31;5057237;28;45423;-78
2021/12/25 07:20:00;;;;;;;;;21.33;21.33;;;;;8.54;100.00;100140.88;5047373;28;45450;-77
2021/12/25 07:22:26;;;;;;;;;18.00;18.00;;;;;8.59;100.00;100141.59;5056736;28;45995;-78
2021/12/25 07:24:51;;;;;;;;;22.00;19.33;;;;;8.53;100.00;100139.97;5044963;28;45522;-78
2021/12/25 07:27:17;;;;;;;;;21.67;20.00;;;;;8.47;100.00;100128.78;5037058;28;45447;-75
2021/12/25 07:29:42;;;;;;;;;23.00;18.33;;;;;8.48;100.00;100141.00;5047545;28;45380;-75
2021/12/25 07:32:08;;;;;;;;;21.33;20.67;;;;;8.54;100.00;100154.00;5056512;28;46400;-75
2021/12/25 07:34:33;;;;;;;;;23.00;20.33;;;;;8.59;100.00;100162.59;5056846;28;45327;-74
2021/12/25 07:36:58;;;;;;;;;24.00;20.00;;;;;8.48;100.00;100143.63;5056041;28;45321;-75
2021/12/25 07:39:24;;;;;;;;;24.33;21.00;;;;;8.52;100.00;100153.13;5057072;28;45340;-76
2021/12/25 07:41:50;;;;;;;;;21.67;16.33;;;;;8.57;100.00;100166.16;5056920;28;47534;-75
2021/12/25 07:44:15;;;;;;;;;22.67;17.67;;;;;8.57;100.00;100166.16;5056581;28;45767;-76
2021/12/25 07:46:42;;;;;;;;;23.33;20.67;;;;;8.58;100.00;100163.47;5056806;28;45509;-75
2021/12/25 07:49:14;;;;;;;;;17.00;14.67;;;;;8.57;100.00;100164.41;5056755;28;45389;-75
2021/12/25 07:51:40;;;;;;;;;21.67;18.67;;;;;8.53;100.00;100168.84;5049870;28;46612;-74
2021/12/25 07:54:05;;;;;;;;;20.33;18.33;;;;;8.52;100.00;100169.78;5056137;28;45474;-74
2021/12/25 07:56:30;;;;;;;;;27.33;23.33;;;;;8.47;100.00;100155.03;5056868;28;45340;-72
2021/12/25 07:58:56;;;;;;;;;27.67;23.33;;;;;8.57;100.00;100172.28;5056566;28;45544;-73
2021/12/25 08:01:21;;;;;;;;;27.33;22.00;;;;;8.56;100.00;100175.78;5066086;28;46120;-72
2021/12/25 08:03:46;;;;;;;;;21.33;19.33;;;;;8.57;100.00;100176.63;5063941;27;45463;-74
2021/12/25 08:06:12;;;;;;;;;24.67;20.00;;;;;8.49;100.00;100163.72;5055347;28;45964;-72
2021/12/25 08:08:37;;;;;;;;;22.33;19.33;;;;;8.47;100.00;100173.41;5056286;28;45442;-72
2021/12/25 08:11:02;;;;;;;;;19.00;15.33;;;;;8.43;100.00;100166.47;5055201;28;45529;-72
2021/12/25 08:13:28;;;;;;;;;16.67;14.33;;;;;8.51;100.00;100188.13;5058640;28;45458;-72
2021/12/25 08:15:53;;;;;;;;;16.67;13.00;;;;;8.45;100.00;100183.03;5059601;28;45378;-73
2021/12/25 08:18:19;;;;;;;;;14.00;12.67;;;;;8.42;100.00;100188.34;5059243;28;45242;-77
2021/12/25 08:20:44;;;;;;;;;17.67;16.67;;;;;8.35;100.00;100193.72;5059184;28;45540;-72
2021/12/25 08:23:09;;;;;;;;;16.00;15.00;;;;;8.39;100.00;100204.16;5059686;28;45279;-76
2021/12/25 08:25:35;;;;;;;;;7.00;6.67;;;;;8.36;100.00;100194.56;5059075;28;45323;-76
2021/12/25 08:28:01;;;;;;;;;17.33;13.33;;;;;8.27;100.00;100186.94;5059955;28;45371;-75
2021/12/25 08:30:27;;;;;;;;;13.00;10.67;;;;;8.27;100.00;100195.66;5058401;28;46287;-76
2021/12/25 08:32:58;;;;;;;;;17.67;15.67;;;;;8.30;100.00;100194.72;5040968;28;45367;-68
2021/12/25 08:35:26;;;;;;;;;16.00;13.33;;;;;8.20;100.00;100183.56;5052628;28;45534;-68
2021/12/25 08:37:52;;;;;;;;;11.67;10.00;;;;;8.25;100.00;100200.06;5059506;28;45396;-68
2021/12/25 08:40:17;;;;;;;;;14.33;12.33;;;;;8.19;100.00;100203.69;5059034;28;46188;-68
2021/12/25 08:42:52;;;;;;;;;15.00;13.00;;;;;8.19;100.00;100206.31;5058998;28;45388;-68
2021/12/25 08:48:23;;;;;;;;;15.00;15.00;;;;;8.19;100.00;100210.69;5036926;28;45462;-68
2021/12/25 08:50:54;;;;;;;;;12.67;11.67;;;;;8.05;99.53;100200.50;5039354;28;45426;-68
2021/12/25 08:53:22;;;;;;;;;14.67;13.00;;;;;8.06;99.55;100204.88;5056478;28;45219;-68
2021/12/25 08:55:49;;;;;;;;;17.00;14.33;;;;;7.94;98.92;100198.09;5057206;28;45379;-71
2021/12/25 08:58:15;;;;;;;;;16.50;14.50;;;;;8.04;99.50;100221.50;5057325;28;45523;-71
2021/12/25 09:00:41;;;;;;;;;13.33;10.00;;;;;8.02;98.56;100219.78;5056391;28;46003;-71
2021/12/25 09:03:07;;;;;;;;;16.33;12.67;;;;;7.94;98.82;100211.19;5057170;28;45503;-71
2021/12/25 09:05:33;;;;;;;;;16.33;13.00;;;;;8.05;99.35;100226.72;5057098;28;45392;-71
2021/12/25 09:07:59;;;;;;;;;15.33;12.33;;;;;7.86;98.27;100200.03;5056588;28;45474;-71
2021/12/25 09:10:28;;;;;;;;;18.33;14.67;;;;;8.01;98.31;100230.28;5056425;28;46380;-71
2021/12/25 09:12:54;;;;;;;;;16.67;12.33;;;;;7.93;98.78;100221.72;5056469;28;45421;-71
2021/12/25 09:15:19;;;;;;;;;18.67;16.67;;;;;7.99;98.15;100227.72;5056719;28;45457;-71
2021/12/25 09:17:46;;;;;;;;;18.00;18.00;;;;;7.94;98.87;100229.53;5057422;28;45270;-71
2021/12/25 09:20:14;;;;;;;;;19.00;16.67;;;;;7.93;97.83;100232.19;5056604;28;47236;-71
2021/12/25 09:22:40;;;;;;;;;18.67;13.67;;;;;7.82;97.74;100214.09;5056824;28;45392;-71
2021/12/25 09:25:05;;;;;;;;;21.00;17.00;;;;;7.96;97.75;100240.03;5057849;28;45472;-70
2021/12/25 09:27:31;;;;;;;;;16.67;16.00;;;;;7.98;97.83;100240.84;5058428;28;45348;-70
2021/12/25 09:29:56;;;;;;;;;18.00;14.67;;;;;7.95;98.28;100248.78;5056845;28;45449;-71
2021/12/25 09:32:29;;;;;;;;;15.67;13.00;;;;;7.93;97.88;100246.19;5058434;28;45510;-71
2021/12/25 09:34:55;;;;;;;;;16.33;16.33;;;;;7.75;97.60;100222.97;5065941;28;45680;-70
2021/12/25 09:37:21;;;;;;;;;19.67;16.00;;;;;7.97;97.34;100255.72;5077622;27;45287;-70
2021/12/25 09:39:47;;;;;;;;;27.00;21.67;;;;;7.96;97.51;100264.47;5076725;27;46212;-70
2021/12/25 09:42:12;;;;;;;;;20.00;18.33;;;;;7.88;97.14;100250.66;5078780;27;45376;-71
2021/12/25 09:44:38;;;;;;;;;20.00;19.00;;;;;7.94;97.29;100265.41;5078494;27;45301;-70
2021/12/25 09:47:04;;;;;;;;;18.00;17.00;;;;;7.97;97.50;100263.59;5069296;27;45242;-72
2021/12/25 09:49:30;;;;;;;;;18.33;18.33;;;;;7.74;96.84;100226.47;5058528;28;46407;-74
2021/12/25 09:51:56;;;;;;;;;14.67;13.00;;;;;7.95;96.09;100267.97;5058313;28;45312;-70
2021/12/25 09:54:21;;;;;;;;;12.00;11.00;;;;;7.93;96.73;100280.28;5058495;28;45487;-73
2021/12/25 09:56:49;;;;;;;;;19.33;16.33;;;;;7.85;96.50;100272.53;5058605;28;45421;-71
2021/12/25 09:59:15;;;;;;;;;21.67;18.00;;;;;7.91;96.98;100284.66;5058343;28;47374;-75
2021/12/25 10:01:50;;;;;;;;;20.67;19.00;;;;;7.90;97.21;100280.34;5057901;28;45353;-71
2021/12/25 10:04:38;;;;;;;;;18.00;17.00;;;;;7.99;97.51;100285.38;5063578;27;45401;-68
2021/12/25 10:07:25;;;;;;;;;17.33;14.33;;;;;8.04;95.97;100294.91;5060986;27;45473;-68
2021/12/25 10:09:59;;;;;;;;;18.67;17.33;;;;;8.03;96.47;100291.44;5060070;28;47489;-68
2021/12/25 10:12:36;;;;;;;;;22.33;19.00;;;;;7.99;96.26;100288.00;5070697;28;45866;-68
2021/12/25 10:15:02;;;;;;;;;20.67;19.67;;;;;7.99;96.79;100290.63;5058102;28;45234;-68
2021/12/25 10:17:30;;;;;;;;;19.67;16.33;;;;;8.07;96.63;100292.25;5042547;28;45193;-68
2021/12/25 10:20:11;;;;;;;;;19.33;16.67;;;;;8.13;96.49;100292.09;5037796;28;47741;-68
2021/12/25 10:22:52;;;;;;;;;17.33;16.00;;;;;8.14;95.25;100305.19;5038022;28;45399;-68
2021/12/25 10:25:17;;;;;;;;;19.00;17.67;;;;;8.05;95.55;100284.41;5038151;28;45317;-68
2021/12/25 10:27:54;;;;;;;;;17.67;16.00;;;;;7.97;94.52;100275.81;5038081;28;45322;-69
2021/12/25 10:30:20;;;;;;;;;19.00;17.67;;;;;8.07;93.95;100298.34;5037529;28;46676;-68
2021/12/25 10:32:47;;;;;;;;;18.67;14.67;;;;;7.98;93.85;100306.38;5037908;28;45296;-68
2021/12/25 10:35:21;;;;;;;;;20.33;17.00;;;;;8.01;95.18;100307.19;5037619;28;45345;-68
2021/12/25 10:37:50;;;;;;;;;24.67;19.00;;;;;7.82;94.74;100269.13;5037928;28;45491;-68
2021/12/25 10:40:26;;;;;;;;;21.67;14.00;;;;;8.01;93.51;100307.19;5037600;28;46097;-68
2021/12/25 10:42:56;;;;;;;;;19.00;16.33;;;;;7.97;94.65;100297.66;5037639;28;45164;-68
2021/12/25 10:45:23;;;;;;;;;19.67;18.67;;;;;8.05;94.71;100308.00;5037701;28;45309;-68
2021/12/25 10:48:04;;;;;;;;;19.33;18.33;;;;;8.07;94.18;100310.59;5037571;28;45226;-68
2021/12/25 10:50:35;;;;;;;;;20.67;17.67;;;;;8.02;93.29;100303.69;5037569;28;46137;-69
2021/12/25 10:53:01;;;;;;;;;23.33;19.33;;;;;7.90;93.58;100293.44;5037413;28;45394;-69
2021/12/25 10:55:26;;;;;;;;;18.00;16.00;;;;;7.88;92.38;100304.84;5037636;28;45328;-69
2021/12/25 10:57:57;;;;;;;;;16.67;16.67;;;;;7.73;93.36;100287.66;5037699;28;45346;-68
2021/12/25 11:00:33;;;;;;;;;20.00;17.00;;;;;7.82;93.21;100300.56;5037080;28;45410;-66
2021/12/25 11:03:06;;;;;;;;;15.33;13.33;;;;;7.82;93.24;100298.81;5037103;28;45444;-68
2021/12/25 11:05:45;;;;;;;;;21.67;15.67;;;;;7.52;92.86;100260.06;5037423;28;45400;-68
2021/12/25 11:08:21;;;;;;;;;30.67;23.00;;;;;7.67;93.40;100286.84;5037759;28;45275;-68
2021/12/25 11:10:53;;;;;;;;;23.67;17.33;;;;;7.59;93.53;100280.88;5037348;28;46006;-68
2021/12/25 11:13:24;;;;;;;;;18.67;12.00;;;;;7.66;92.85;100300.84;5037310;28;45248;-68
2021/12/25 11:15:55;;;;;;;;;23.67;18.67;;;;;7.67;93.82;100292.09;5036848;28;45385;-69
2021/12/25 11:18:20;;;;;;;;;12.00;12.00;;;;;7.58;92.51;100275.66;5037422;28;45248;-68
2021/12/25 11:20:46;;;;;;;;;18.33;14.67;;;;;7.60;93.23;100285.25;5037093;28;45802;-69
2021/12/25 11:23:13;;;;;;;;;18.00;16.00;;;;;7.57;92.04;100282.69;5037267;28;45356;-68
2021/12/25 11:25:41;;;;;;;;;15.50;14.50;;;;;7.59;92.73;100286.13;5037171;28;45348;-68
2021/12/25 11:28:09;;;;;;;;;17.00;15.00;;;;;7.60;91.12;100287.84;5037184;28;45447;-68
2021/12/25 11:30:43;;;;;;;;;11.67;11.67;;;;;7.61;91.60;100284.34;5036844;28;45461;-68
2021/12/25 11:33:09;;;;;;;;;13.67;13.67;;;;;7.31;90.44;100239.47;5037236;28;45171;-68
2021/12/25 11:35:35;;;;;;;;;21.67;18.33;;;;;7.54;92.41;100269.63;5035791;28;45289;-68
2021/12/25 11:38:03;;;;;;;;;15.67;11.33;;;;;7.61;92.76;100270.38;5037260;28;45349;-66
2021/12/25 11:40:33;;;;;;;;;15.00;13.67;;;;;7.64;91.88;100270.34;5036753;28;45503;-68
2021/12/25 11:43:01;;;;;;;;;17.00;11.25;;;;;7.63;91.15;100279.94;5036886;28;45332;-68
2021/12/25 11:45:33;;;;;;;;;16.33;14.33;;;;;7.56;91.57;100261.75;5037084;28;45435;-68
2021/12/25 11:48:01;;;;;;;;;18.67;16.00;;;;;7.72;91.41;100289.38;5038351;28;45237;-68
2021/12/25 11:50:42;;;;;;;;;23.00;17.00;;;;;7.74;92.15;100279.75;5040048;28;46427;-68
2021/12/25 11:58:40;;;;;;;;;17.00;16.00;;;;;7.75;90.04;100285.84;5040517;28;45468;-68
2021/12/25 12:01:18;;;;;;;;;16.00;13.33;;;;;7.75;90.12;100289.31;5039911;28;46127;-68
2021/12/25 12:03:46;;;;;;;;;15.33;12.67;;;;;7.73;90.42;100283.25;5040147;28;45439;-68
2021/12/25 12:06:14;;;;;;;;;16.67;16.33;;;;;7.70;90.52;100275.47;5040216;28;45500;-69
2021/12/25 12:08:55;;;;;;;;;16.67;15.00;;;;;7.74;90.71;100273.63;5039176;28;45283;-69
2021/12/25 12:11:23;;;;;;;;;14.33;13.33;;;;;7.72;90.33;100268.44;5039726;28;46603;-69
2021/12/25 12:14:17;;;;;;;;;15.67;15.67;;;;;7.69;89.63;100273.72;5039881;28;45440;-69
2021/12/25 12:17:01;;;;;;;;;15.67;13.00;;;;;7.70;89.63;100275.47;5039779;28;45282;-68
2021/12/25 12:19:39;;;;;;;;;17.00;15.33;;;;;7.70;90.40;100271.97;5040254;28;45290;-68
2021/12/25 12:25:16;;;;;;;;;18.00;17.00;;;;;7.59;90.18;100267.78;5039898;28;45406;-68
2021/12/25 12:27:55;;;;;;;;;21.67;18.00;;;;;7.59;89.35;100267.78;5039729;28;45448;-68
2021/12/25 12:30:36;;;;;;;;;20.33;17.00;;;;;7.63;89.82;100266.00;5039860;27;45450;-68
2021/12/25 12:33:23;;;;;;;;;18.33;16.00;;;;;7.72;89.56;100267.56;5039754;28;45834;-68
2021/12/25 12:35:50;;;;;;;;;14.33;14.33;;;;;7.80;88.30;100260.44;5039773;28;45297;-68
2021/12/25 12:38:43;;;;;;;;;18.00;14.00;;;;;7.76;87.96;100253.53;5039692;28;45463;-69
2021/12/25 12:41:39;;;;;;;;;20.33;16.00;;;;;7.84;88.52;100262.09;5039793;28;45480;-68